Time;durP1;ratioP1;P1;durP2;ratioP2;P2;SDS_P1;SDS_P2;PMS_P1;PMS_P2;Temp;Humidity;BMP_temperature;BMP_pressure;BME280_temperature;BME280_humidity;BME280_pressure;Samples;Min_cycle;Max_cycle;Signal;HPM_P1;HPM_P2
2021/06/02 00:28:23;;;;;;;3.05;2.60;;;;;;;;;;5163558;27;19965;-71
2021/06/02 00:30:49;;;;;;;6.30;2.30;;;;;;;;;;5178271;27;20393;-66
2021/06/02 00:33:15;;;;;;;3.40;2.50;;;;;;;;;;5179384;27;20105;-69
2021/06/02 00:35:42;;;;;;;6.90;2.05;;;;;;;;;;5178015;27;20067;-67
2021/06/02 00:38:08;;;;;;;3.53;2.40;;;;;;;;;;5177638;27;20084;-69
2021/06/02 00:40:44;;;;;;;2.70;2.40;;;;;;;;;;5180982;27;20153;-66
2021/06/02 00:43:09;;;;;;;7.28;2.35;;;;;;;;;;5179602;27;20179;-65
2021/06/02 00:45:35;;;;;;;7.78;2.40;;;;;;;;;;5162084;27;20093;-69
2021/06/02 00:48:02;;;;;;;6.50;2.97;;;;;;;;;;5175828;27;20482;-68
2021/06/02 00:50:29;;;;;;;4.03;2.40;;;;;;;;;;5181360;27;20527;-66
2021/06/02 00:52:55;;;;;;;5.30;2.42;;;;;;;;;;5181362;27;20492;-68
2021/06/02 00:55:21;;;;;;;4.55;2.20;;;;;;;;;;5196889;27;20191;-66
2021/06/02 00:57:48;;;;;;;3.55;2.33;;;;;;;;;;5180958;27;20163;-68
2021/06/02 01:00:15;;;;;;;5.37;2.35;;;;;;;;;;5180997;27;20081;-69
2021/06/02 01:02:41;;;;;;;4.72;2.30;;;;;;;;;;5196936;27;20126;-64
2021/06/02 01:05:08;;;;;;;4.07;2.60;;;;;;;;;;5179337;27;20425;-66
2021/06/02 01:07:34;;;;;;;3.45;2.33;;;;;;;;;;5180754;27;20089;-69
2021/06/02 01:10:00;;;;;;;5.62;2.45;;;;;;;;;;5179264;27;20408;-66
2021/06/02 01:12:28;;;;;;;10.38;2.70;;;;;;;;;;5179207;27;20082;-68
2021/06/02 01:14:55;;;;;;;4.03;1.90;;;;;;;;;;5180864;27;20082;-69
2021/06/02 01:17:23;;;;;;;4.03;2.30;;;;;;;;;;5179083;27;20114;-70
2021/06/02 01:19:49;;;;;;;3.85;2.30;;;;;;;;;;5181274;27;20082;-70
2021/06/02 01:22:16;;;;;;;6.20;2.20;;;;;;;;;;5179377;27;20096;-66
2021/06/02 01:24:41;;;;;;;8.25;1.98;;;;;;;;;;5180799;27;20065;-67
2021/06/02 01:27:09;;;;;;;7.85;2.28;;;;;;;;;;5180658;27;20065;-70
2021/06/02 01:29:38;;;;;;;8.30;2.58;;;;;;;;;;5179309;27;20082;-69
2021/06/02 01:32:41;;;;;;;2.85;1.90;;;;;;;;;;5181032;27;20077;-67
2021/06/02 01:35:37;;;;;;;6.45;2.45;;;;;;;;;;5180637;27;20074;-69
2021/06/02 01:38:21;;;;;;;5.82;2.28;;;;;;;;;;5163052;27;20520;-65
2021/06/02 01:40:59;;;;;;;3.75;2.47;;;;;;;;;;5180819;27;20089;-66
2021/06/02 01:43:37;;;;;;;2.80;2.50;;;;;;;;;;5180792;27;20077;-67
2021/06/02 01:46:22;;;;;;;4.43;2.17;;;;;;;;;;5179259;27;20568;-67
2021/06/02 01:49:23;;;;;;;7.55;2.20;;;;;;;;;;5180278;27;20576;-69
2021/06/02 01:52:16;;;;;;;3.58;2.45;;;;;;;;;;5178659;27;20077;-66
2021/06/02 01:55:04;;;;;;;5.55;2.40;;;;;;;;;;5178794;27;20480;-64
2021/06/02 01:57:42;;;;;;;7.43;2.42;;;;;;;;;;5180648;27;20467;-65
2021/06/02 02:00:23;;;;;;;4.40;2.25;;;;;;;;;;5180708;27;20168;-69
2021/06/02 02:03:14;;;;;;;5.97;2.10;;;;;;;;;;5162445;27;20075;-69
2021/06/02 02:06:26;;;;;;;4.45;2.40;;;;;;;;;;5180662;27;20476;-65
2021/06/02 02:08:55;;;;;;;3.22;2.20;;;;;;;;;;5178718;27;20069;-71
2021/06/02 02:11:35;;;;;;;3.42;2.00;;;;;;;;;;5180797;27;20082;-65
2021/06/02 02:14:04;;;;;;;2.95;2.20;;;;;;;;;;5161494;27;20164;-69
2021/06/02 02:16:52;;;;;;;2.40;1.98;;;;;;;;;;5180568;27;20082;-70
2021/06/02 02:19:27;;;;;;;4.90;2.20;;;;;;;;;;5180470;27;20096;-67
2021/06/02 02:22:02;;;;;;;3.20;2.20;;;;;;;;;;5178378;27;20248;-66
2021/06/02 02:24:34;;;;;;;4.53;2.00;;;;;;;;;;5180325;27;20165;-68
2021/06/02 02:27:08;;;;;;;5.03;2.33;;;;;;;;;;5180418;27;20061;-66
2021/06/02 02:30:03;;;;;;;9.30;2.00;;;;;;;;;;5180449;27;20087;-68
2021/06/02 02:32:35;;;;;;;4.45;2.33;;;;;;;;;;5178650;27;20078;-68
2021/06/02 02:35:19;;;;;;;6.07;2.30;;;;;;;;;;5180322;27;20088;-66
2021/06/02 02:37:48;;;;;;;2.70;2.10;;;;;;;;;;5180157;27;20089;-71
2021/06/02 02:40:28;;;;;;;7.22;2.40;;;;;;;;;;5180795;27;20086;-70
2021/06/02 02:43:06;;;;;;;4.80;2.20;;;;;;;;;;5162184;27;20133;-67
2021/06/02 02:45:54;;;;;;;6.80;2.40;;;;;;;;;;5180564;27;20555;-71
2021/06/02 02:48:44;;;;;;;2.95;2.30;;;;;;;;;;5180135;27;20089;-71
2021/06/02 02:51:26;;;;;;;6.60;2.15;;;;;;;;;;5180196;27;20146;-66
2021/06/02 02:54:03;;;;;;;3.92;2.40;;;;;;;;;;5180200;27;20093;-66
2021/06/02 02:56:39;;;;;;;6.05;2.10;;;;;;;;;;5178678;27;20078;-71
2021/06/02 02:59:21;;;;;;;2.70;2.17;;;;;;;;;;5177777;27;20163;-66
2021/06/02 03:01:51;;;;;;;5.35;2.17;;;;;;;;;;5161125;27;20149;-66
2021/06/02 03:04:18;;;;;;;3.28;2.25;;;;;;;;;;5178701;27;20480;-67
2021/06/02 03:06:50;;;;;;;6.95;2.30;;;;;;;;;;5178142;27;20070;-65
2021/06/02 03:09:42;;;;;;;4.32;2.40;;;;;;;;;;5177537;27;20485;-69
2021/06/02 03:12:36;;;;;;;5.45;2.67;;;;;;;;;;5178029;27;20088;-66
2021/06/02 03:15:11;;;;;;;4.15;2.12;;;;;;;;;;5162228;27;20610;-69
2021/06/02 03:17:44;;;;;;;4.22;2.08;;;;;;;;;;5178595;27;20082;-68
2021/06/02 03:20:26;;;;;;;4.25;1.92;;;;;;;;;;5161185;27;20190;-66
2021/06/02 03:23:01;;;;;;;4.05;2.50;;;;;;;;;;5160987;27;20188;-71
2021/06/02 03:25:29;;;;;;;;;;;;;;;;;;5179012;27;20084;-70
2021/06/02 03:28:04;;;;;;;3.28;2.70;;;;;;;;;;5178451;27;20033;-70
2021/06/02 03:30:37;;;;;;;3.35;2.12;;;;;;;;;;5180156;27;20136;-67
2021/06/02 03:33:10;;;;;;;5.30;2.22;;;;;;;;;;5161769;27;20079;-69
2021/06/02 03:36:11;;;;;;;2.10;1.90;;;;;;;;;;5161589;27;20534;-62
2021/06/02 03:39:04;;;;;;;2.72;2.03;;;;;;;;;;5179889;27;20494;-64
2021/06/02 03:41:51;;;;;;;6.82;2.12;;;;;;;;;;5180073;27;20067;-68
2021/06/02 03:44:22;;;;;;;2.45;1.77;;;;;;;;;;5180145;27;20093;-68
2021/06/02 03:47:14;;;;;;;2.22;1.73;;;;;;;;;;5160963;27;20172;-62
2021/06/02 03:49:58;;;;;;;5.12;2.12;;;;;;;;;;5178279;27;20456;-65
2021/06/02 03:52:49;;;;;;;2.95;2.22;;;;;;;;;;5178180;27;20094;-61
2021/06/02 03:55:27;;;;;;;4.78;1.80;;;;;;;;;;5131053;27;20094;-62
2021/06/02 03:57:57;;;;;;;2.75;1.98;;;;;;;;;;5178173;27;20077;-64
2021/06/02 04:00:27;;;;;;;2.30;2.10;;;;;;;;;;5178317;27;20447;-63
2021/06/02 04:02:58;;;;;;;7.30;1.80;;;;;;;;;;5160982;27;20086;-66
2021/06/02 04:05:40;;;;;;;4.90;2.08;;;;;;;;;;5179990;27;20093;-64
2021/06/02 04:08:29;;;;;;;4.20;2.28;;;;;;;;;;5179936;27;20148;-67
2021/06/02 04:11:09;;;;;;;3.33;2.17;;;;;;;;;;5179746;27;20175;-64
2021/06/02 04:13:57;;;;;;;6.28;2.50;;;;;;;;;;5178699;27;20102;-64
2021/06/02 04:16:27;;;;;;;6.47;2.42;;;;;;;;;;5179615;27;20073;-64
2021/06/02 04:18:53;;;;;;;2.42;2.20;;;;;;;;;;5181182;27;20086;-64
2021/06/02 04:21:22;;;;;;;7.78;2.10;;;;;;;;;;5179550;27;20101;-66
2021/06/02 04:23:48;;;;;;;2.55;2.03;;;;;;;;;;5181061;27;20072;-64
2021/06/02 04:26:14;;;;;;;3.87;2.30;;;;;;;;;;5181229;27;20109;-65
2021/06/02 04:28:41;;;;;;;5.05;2.25;;;;;;;;;;5181511;27;20428;-65
2021/06/02 04:31:09;;;;;;;5.10;2.12;;;;;;;;;;5181357;27;20543;-65
2021/06/02 04:33:36;;;;;;;1.85;1.70;;;;;;;;;;5181104;27;20076;-66
2021/06/02 04:36:03;;;;;;;4.47;2.20;;;;;;;;;;5179079;27;20522;-64
2021/06/02 04:38:30;;;;;;;2.65;2.10;;;;;;;;;;5181059;27;20062;-63
2021/06/02 04:41:01;;;;;;;5.80;2.20;;;;;;;;;;5181504;27;20175;-67
2021/06/02 04:43:28;;;;;;;5.68;2.35;;;;;;;;;;5181256;27;20436;-67
2021/06/02 04:45:58;;;;;;;4.00;1.95;;;;;;;;;;5179791;27;20167;-66
2021/06/02 04:48:25;;;;;;;3.20;2.00;;;;;;;;;;5180900;27;20094;-66
2021/06/02 04:50:55;;;;;;;3.65;1.90;;;;;;;;;;5181359;27;20439;-66
2021/06/02 04:53:48;;;;;;;2.95;1.90;;;;;;;;;;5179199;27;20540;-63
2021/06/02 04:56:45;;;;;;;4.50;2.12;;;;;;;;;;5181362;27;20464;-64
2021/06/02 04:59:32;;;;;;;11.73;2.25;;;;;;;;;;5180996;27;20064;-63
2021/06/02 05:02:26;;;;;;;4.07;2.12;;;;;;;;;;5180757;27;20078;-65
2021/06/02 05:05:33;;;;;;;4.72;2.00;;;;;;;;;;5196929;27;20089;-68
2021/06/02 05:08:33;;;;;;;2.90;2.33;;;;;;;;;;5179309;27;20076;-66
2021/06/02 05:11:21;;;;;;;3.58;1.98;;;;;;;;;;5181028;27;20507;-66
2021/06/02 05:14:04;;;;;;;2.72;2.17;;;;;;;;;;5196790;27;20480;-65
2021/06/02 05:16:46;;;;;;;2.78;1.92;;;;;;;;;;5180889;27;20484;-66
2021/06/02 05:22:39;;;;;;;3.22;2.22;;;;;;;;;;5180927;27;20094;-66
2021/06/02 05:25:42;;;;;;;3.70;2.17;;;;;;;;;;5140561;27;20071;-66
2021/06/02 05:28:27;;;;;;;7.68;3.05;;;;;;;;;;5180644;27;20097;-66
2021/06/02 05:31:37;;;;;;;2.72;1.95;;;;;;;;;;5180756;27;20172;-68
2021/06/02 05:34:38;;;;;;;2.70;2.20;;;;;;;;;;5180490;27;20089;-68
2021/06/02 05:37:22;;;;;;;4.40;2.80;;;;;;;;;;5180582;27;20073;-67
2021/06/02 05:40:10;;;;;;;4.45;2.35;;;;;;;;;;5180619;27;20167;-68
2021/06/02 05:43:04;;;;;;;6.70;2.22;;;;;;;;;;5195961;27;20089;-67
2021/06/02 05:46:19;;;;;;;4.43;2.15;;;;;;;;;;5180650;27;20496;-64
2021/06/02 05:49:07;;;;;;;3.08;2.00;;;;;;;;;;5180227;27;20085;-63
2021/06/02 05:51:54;;;;;;;6.60;2.37;;;;;;;;;;5180583;27;20099;-63
2021/06/02 05:54:53;;;;;;;2.58;1.95;;;;;;;;;;5180680;27;20076;-65
2021/06/02 05:57:52;;;;;;;10.57;3.30;;;;;;;;;;5178915;27;20121;-70
2021/06/02 06:00:56;;;;;;;3.40;2.33;;;;;;;;;;5180779;27;20058;-65
2021/06/02 06:03:46;;;;;;;13.85;2.78;;;;;;;;;;5180967;27;20073;-66
2021/06/02 06:06:28;;;;;;;5.97;2.40;;;;;;;;;;5178772;27;20421;-64
2021/06/02 06:09:22;;;;;;;6.72;2.28;;;;;;;;;;5180368;27;20433;-66
2021/06/02 06:12:19;;;;;;;4.78;2.10;;;;;;;;;;5180458;27;20080;-67
2021/06/02 06:15:07;;;;;;;5.10;2.33;;;;;;;;;;5178922;27;20145;-65
2021/06/02 06:17:36;;;;;;;6.85;2.28;;;;;;;;;;5180372;27;20157;-65
2021/06/02 06:20:40;;;;;;;8.13;2.17;;;;;;;;;;5180402;27;20129;-67
2021/06/02 06:23:06;;;;;;;4.03;2.58;;;;;;;;;;5133460;27;20081;-68
2021/06/02 06:25:36;;;;;;;6.03;2.35;;;;;;;;;;5180452;27;20090;-65
2021/06/02 06:28:33;;;;;;;8.95;2.10;;;;;;;;;;5178967;27;20090;-66
2021/06/02 06:30:59;;;;;;;9.38;2.53;;;;;;;;;;5194094;27;20487;-65
2021/06/02 06:33:26;;;;;;;4.10;2.15;;;;;;;;;;5161209;27;20161;-63
2021/06/02 06:35:52;;;;;;;5.65;2.90;;;;;;;;;;5180547;27;20556;-67
2021/06/02 06:38:23;;;;;;;6.07;2.60;;;;;;;;;;5178194;27;20180;-61
2021/06/02 06:40:52;;;;;;;3.50;2.45;;;;;;;;;;5178600;27;20080;-64
2021/06/02 06:43:18;;;;;;;7.05;3.22;;;;;;;;;;5180043;27;20090;-68
2021/06/02 06:45:44;;;;;;;6.32;2.90;;;;;;;;;;5178706;27;20519;-69
2021/06/02 06:48:13;;;;;;;6.97;2.97;;;;;;;;;;5178399;27;20093;-64
2021/06/02 06:50:39;;;;;;;3.85;2.60;;;;;;;;;;5161658;27;20088;-63
2021/06/02 06:53:06;;;;;;;5.03;2.35;;;;;;;;;;5178669;27;20092;-64
2021/06/02 06:55:32;;;;;;;9.43;2.90;;;;;;;;;;5161554;27;20236;-64
2021/06/02 06:57:58;;;;;;;8.00;2.30;;;;;;;;;;5178718;27;20074;-64
2021/06/02 07:00:24;;;;;;;7.78;2.47;;;;;;;;;;5195650;27;20070;-63
2021/06/02 07:02:50;;;;;;;5.18;2.70;;;;;;;;;;5178321;27;20073;-65
2021/06/02 07:05:17;;;;;;;2.55;2.35;;;;;;;;;;5180426;27;20145;-65
2021/06/02 07:07:43;;;;;;;6.53;2.70;;;;;;;;;;5178759;27;20088;-63
2021/06/02 07:10:11;;;;;;;8.02;2.60;;;;;;;;;;5180456;27;20096;-66
2021/06/02 07:12:38;;;;;;;3.55;2.22;;;;;;;;;;5178223;27;20167;-64
2021/06/02 07:15:07;;;;;;;5.35;2.25;;;;;;;;;;5178679;27;20574;-65
2021/06/02 07:17:35;;;;;;;4.10;2.78;;;;;;;;;;5178331;27;20059;-64
2021/06/02 07:20:02;;;;;;;8.10;2.60;;;;;;;;;;5178487;27;20077;-64
2021/06/02 07:22:28;;;;;;;4.72;2.53;;;;;;;;;;5178650;27;20164;-64
2021/06/02 07:24:54;;;;;;;2.97;2.25;;;;;;;;;;5178464;27;20109;-64
2021/06/02 07:27:20;;;;;;;7.00;2.75;;;;;;;;;;5161176;27;20177;-64
2021/06/02 07:29:46;;;;;;;6.12;2.67;;;;;;;;;;5180099;27;20112;-63
2021/06/02 07:32:13;;;;;;;3.12;1.75;;;;;;;;;;5180397;27;20158;-64
2021/06/02 07:34:38;;;;;;;5.57;2.30;;;;;;;;;;5180007;27;20113;-63
2021/06/02 07:37:04;;;;;;;5.40;2.05;;;;;;;;;;5179958;27;20159;-64
2021/06/02 07:39:30;;;;;;;6.45;2.33;;;;;;;;;;5180177;27;20505;-63
2021/06/02 07:41:56;;;;;;;5.45;2.87;;;;;;;;;;5178061;27;20084;-64
2021/06/02 07:44:22;;;;;;;5.32;2.30;;;;;;;;;;5195912;27;20085;-64
2021/06/02 07:46:48;;;;;;;5.47;2.53;;;;;;;;;;5179921;27;20416;-64
2021/06/02 07:49:14;;;;;;;9.02;2.87;;;;;;;;;;5180983;27;20097;-64
2021/06/02 07:51:40;;;;;;;3.05;2.28;;;;;;;;;;5179968;27;20111;-65
2021/06/02 07:54:06;;;;;;;4.12;2.55;;;;;;;;;;5181556;27;20105;-65
2021/06/02 07:56:33;;;;;;;2.85;2.53;;;;;;;;;;5162674;27;20172;-63
2021/06/02 07:58:59;;;;;;;4.75;2.47;;;;;;;;;;5181418;27;20480;-65
2021/06/02 08:01:25;;;;;;;10.18;2.85;;;;;;;;;;5181489;27;20178;-64
2021/06/02 08:03:51;;;;;;;3.95;2.83;;;;;;;;;;5181338;27;20082;-66
2021/06/02 08:06:17;;;;;;;4.97;2.80;;;;;;;;;;5181735;27;20512;-64
2021/06/02 08:08:43;;;;;;;3.42;2.62;;;;;;;;;;5181393;27;20423;-64
2021/06/02 08:11:09;;;;;;;5.18;2.70;;;;;;;;;;5181547;27;20086;-64
2021/06/02 08:13:35;;;;;;;8.93;2.85;;;;;;;;;;5181530;27;20199;-65
2021/06/02 08:16:01;;;;;;;15.07;2.97;;;;;;;;;;5181416;27;20132;-65
2021/06/02 08:18:27;;;;;;;6.05;2.87;;;;;;;;;;5181410;27;20506;-65
2021/06/02 08:20:56;;;;;;;7.75;3.15;;;;;;;;;;5181601;27;20546;-64
2021/06/02 08:23:22;;;;;;;12.68;3.22;;;;;;;;;;5181004;27;20096;-63
2021/06/02 08:25:47;;;;;;;9.45;2.83;;;;;;;;;;5181314;27;20094;-64
2021/06/02 08:28:13;;;;;;;7.18;2.58;;;;;;;;;;5179506;27;20069;-64
2021/06/02 08:30:39;;;;;;;4.65;2.83;;;;;;;;;;5181144;27;20500;-66
2021/06/02 08:33:05;;;;;;;3.87;2.83;;;;;;;;;;5195610;27;20101;-64
2021/06/02 08:35:31;;;;;;;4.45;3.33;;;;;;;;;;5180992;27;20217;-63
2021/06/02 08:38:01;;;;;;;6.00;2.60;;;;;;;;;;5180645;27;20533;-68
2021/06/02 08:40:29;;;;;;;5.85;3.20;;;;;;;;;;5161843;27;20086;-64
2021/06/02 08:42:55;;;;;;;4.20;2.67;;;;;;;;;;5181154;27;20572;-63
2021/06/02 08:45:21;;;;;;;6.30;3.25;;;;;;;;;;5179310;27;20527;-65
2021/06/02 08:47:48;;;;;;;6.30;3.22;;;;;;;;;;5180374;27;20093;-64
2021/06/02 08:50:15;;;;;;;4.18;2.67;;;;;;;;;;5180881;27;20078;-64
2021/06/02 08:52:42;;;;;;;4.87;2.90;;;;;;;;;;5180963;27;20093;-63
2021/06/02 08:55:09;;;;;;;4.20;2.90;;;;;;;;;;5181046;27;20098;-64
2021/06/02 08:57:39;;;;;;;3.15;1.90;;;;;;;;;;5181031;27;20498;-66
2021/06/02 09:00:08;;;;;;;5.30;2.72;;;;;;;;;;5181203;27;20070;-64
2021/06/02 09:02:34;;;;;;;7.32;3.10;;;;;;;;;;5181017;27;20066;-63
2021/06/02 09:05:00;;;;;;;6.93;2.85;;;;;;;;;;5179215;27;20174;-64
2021/06/02 09:07:25;;;;;;;5.97;2.92;;;;;;;;;;5181448;27;20088;-64
2021/06/02 09:09:52;;;;;;;8.43;2.90;;;;;;;;;;5179332;27;20080;-65
2021/06/02 09:12:19;;;;;;;5.78;2.50;;;;;;;;;;5180836;27;20080;-66
2021/06/02 09:14:46;;;;;;;10.75;3.15;;;;;;;;;;5179097;27;20080;-64
2021/06/02 09:17:14;;;;;;;10.10;3.12;;;;;;;;;;5180713;27;20066;-65
2021/06/02 09:19:44;;;;;;;6.65;2.80;;;;;;;;;;5180852;27;20119;-68
2021/06/02 09:22:20;;;;;;;6.50;2.78;;;;;;;;;;5180944;27;20168;-65
2021/06/02 09:25:00;;;;;;;6.07;2.50;;;;;;;;;;5181029;27;20500;-64
2021/06/02 09:27:57;;;;;;;9.93;3.15;;;;;;;;;;5180766;27;20078;-63
2021/06/02 09:30:31;;;;;;;9.05;3.30;;;;;;;;;;5180930;27;20066;-65
2021/06/02 09:32:58;;;;;;;6.90;3.30;;;;;;;;;;5180704;27;20481;-65
2021/06/02 09:35:35;;;;;;;6.32;3.15;;;;;;;;;;5180872;27;20161;-64
2021/06/02 09:38:01;;;;;;;4.35;2.87;;;;;;;;;;5180535;27;20093;-64
2021/06/02 09:40:33;;;;;;;10.98;3.12;;;;;;;;;;5180876;27;20090;-64
2021/06/02 09:42:59;;;;;;;6.05;2.67;;;;;;;;;;5180628;27;20089;-63
2021/06/02 09:45:25;;;;;;;5.15;2.75;;;;;;;;;;5181057;27;20405;-63
2021/06/02 09:47:53;;;;;;;4.60;2.75;;;;;;;;;;5180510;27;20182;-63
2021/06/02 09:50:29;;;;;;;3.05;2.45;;;;;;;;;;5178921;27;20096;-65
2021/06/02 09:52:55;;;;;;;4.12;2.70;;;;;;;;;;5180695;27;20176;-64
2021/06/02 09:55:29;;;;;;;4.93;2.65;;;;;;;;;;5180587;27;20096;-62
2021/06/02 09:58:08;;;;;;;5.37;2.60;;;;;;;;;;5180655;27;20144;-64
2021/06/02 10:00:37;;;;;;;7.05;3.00;;;;;;;;;;5196414;27;20120;-63
2021/06/02 10:03:05;;;;;;;4.85;2.72;;;;;;;;;;5179197;27;20070;-64
2021/06/02 10:05:42;;;;;;;4.22;2.90;;;;;;;;;;5180674;27;20065;-63
2021/06/02 10:08:11;;;;;;;6.68;2.87;;;;;;;;;;5180849;27;20095;-63
2021/06/02 10:10:40;;;;;;;5.82;3.15;;;;;;;;;;5180647;27;20097;-63
2021/06/02 10:13:08;;;;;;;9.48;3.72;;;;;;;;;;5180739;27;20148;-63
2021/06/02 10:15:40;;;;;;;8.23;3.05;;;;;;;;;;5161293;27;20105;-63
2021/06/02 10:18:34;;;;;;;4.80;2.70;;;;;;;;;;5178845;27;20081;-65
2021/06/02 10:21:04;;;;;;;3.28;2.80;;;;;;;;;;5180729;27;20101;-64
2021/06/02 10:23:42;;;;;;;4.30;2.75;;;;;;;;;;5181187;27;20078;-64
2021/06/02 10:26:15;;;;;;;19.80;3.83;;;;;;;;;;5181433;27;20154;-65
2021/06/02 10:28:44;;;;;;;5.32;2.97;;;;;;;;;;5178004;27;20062;-63
2021/06/02 10:31:12;;;;;;;4.87;2.78;;;;;;;;;;5180288;27;20078;-63
2021/06/02 10:33:38;;;;;;;9.25;2.83;;;;;;;;;;5180349;27;20500;-63
2021/06/02 10:36:05;;;;;;;3.65;2.83;;;;;;;;;;5180544;27;20171;-64
2021/06/02 10:38:38;;;;;;;5.97;3.12;;;;;;;;;;5179999;27;20082;-63
2021/06/02 10:41:04;;;;;;;6.62;2.90;;;;;;;;;;5162181;27;20173;-65
2021/06/02 10:43:33;;;;;;;8.68;3.00;;;;;;;;;;5178778;27;20101;-66
2021/06/02 10:46:19;;;;;;;7.10;2.80;;;;;;;;;;5161264;27;20181;-64
2021/06/02 10:48:48;;;;;;;7.43;2.78;;;;;;;;;;5178473;27;20475;-65
2021/06/02 10:51:27;;;;;;;9.30;3.35;;;;;;;;;;5180277;27;20062;-65
2021/06/02 10:54:06;;;;;;;7.37;4.55;;;;;;;;;;5180235;27;20077;-63
2021/06/02 10:56:32;;;;;;;11.23;2.60;;;;;;;;;;5180133;27;20066;-63
2021/06/02 10:58:58;;;;;;;5.78;3.25;;;;;;;;;;5180176;27;20082;-63
2021/06/02 11:01:24;;;;;;;8.27;3.47;;;;;;;;;;5180385;27;20098;-64
2021/06/02 11:04:09;;;;;;;7.25;2.92;;;;;;;;;;5180125;27;20405;-63
2021/06/02 11:06:39;;;;;;;5.32;2.90;;;;;;;;;;5179878;27;20165;-63
2021/06/02 11:09:11;;;;;;;6.60;2.55;;;;;;;;;;5180186;27;20090;-63
2021/06/02 11:11:42;;;;;;;7.65;2.90;;;;;;;;;;5195424;27;20176;-63
2021/06/02 11:14:18;;;;;;;6.32;2.45;;;;;;;;;;5179723;27;20088;-63
2021/06/02 11:16:53;;;;;;;5.93;3.03;;;;;;;;;;5179635;27;20092;-63
2021/06/02 11:19:20;;;;;;;;;;;;;;;;;;5180511;27;20066;-63
2021/06/02 11:21:52;;;;;;;14.07;3.10;;;;;;;;;;5177874;27;19973;-63
2021/06/02 11:24:31;;;;;;;5.43;2.72;;;;;;;;;;5179937;27;20086;-63
2021/06/02 11:27:17;;;;;;;9.75;2.92;;;;;;;;;;5179762;27;20464;-63
2021/06/02 11:32:16;;;;;;;6.90;3.30;;;;;;;;;;5179863;27;20339;-67
2021/06/02 11:34:59;;;;;;;9.20;3.10;;;;;;;;;;5178256;27;20141;-66
2021/06/02 11:37:28;;;;;;;7.32;3.28;;;;;;;;;;5179767;27;20145;-65
2021/06/02 11:39:58;;;;;;;7.10;3.30;;;;;;;;;;5179886;27;20089;-64
2021/06/02 11:42:45;;;;;;;5.10;2.55;;;;;;;;;;5178631;27;20169;-67
2021/06/02 11:45:17;;;;;;;6.32;2.42;;;;;;;;;;5179874;27;20070;-67
2021/06/02 11:47:52;;;;;;;5.82;2.53;;;;;;;;;;5179548;27;20089;-65
2021/06/02 11:50:24;;;;;;;9.10;3.15;;;;;;;;;;5178213;27;20066;-64
2021/06/02 11:52:57;;;;;;;7.62;2.65;;;;;;;;;;5180098;27;20559;-64
2021/06/02 11:55:24;;;;;;;13.18;2.92;;;;;;;;;;5161242;27;20078;-63
2021/06/02 11:57:53;;;;;;;3.65;2.37;;;;;;;;;;5179901;27;20480;-65
2021/06/02 12:00:21;;;;;;;6.32;3.30;;;;;;;;;;5180169;27;20089;-66
2021/06/02 12:02:54;;;;;;;5.65;2.40;;;;;;;;;;5177649;27;20116;-64
2021/06/02 12:05:23;;;;;;;12.07;2.75;;;;;;;;;;5195154;27;20496;-65
2021/06/02 12:07:52;;;;;;;8.70;3.40;;;;;;;;;;5195052;27;20081;-65
2021/06/02 12:10:18;;;;;;;6.68;2.72;;;;;;;;;;5179524;27;20488;-65
2021/06/02 12:12:45;;;;;;;9.68;2.58;;;;;;;;;;5179652;27;20074;-65
2021/06/02 12:15:13;;;;;;;3.55;2.80;;;;;;;;;;5179570;27;20158;-63
2021/06/02 12:17:39;;;;;;;6.03;2.87;;;;;;;;;;5179502;27;20166;-63
2021/06/02 12:20:11;;;;;;;5.62;2.62;;;;;;;;;;5180297;27;20074;-66
2021/06/02 12:22:37;;;;;;;7.32;3.00;;;;;;;;;;5179614;27;20077;-64
2021/06/02 12:25:17;;;;;;;10.90;3.10;;;;;;;;;;5179764;27;20089;-64
2021/06/02 12:27:57;;;;;;;3.53;2.80;;;;;;;;;;5178249;27;20082;-64
2021/06/02 12:30:24;;;;;;;12.13;2.83;;;;;;;;;;5179958;27;20570;-64
2021/06/02 12:33:33;;;;;;;7.05;3.30;;;;;;;;;;5179596;27;20070;-65
2021/06/02 12:36:05;;;;;;;5.95;2.50;;;;;;;;;;5179017;27;20600;-64
2021/06/02 12:38:31;;;;;;;6.97;3.25;;;;;;;;;;5178988;27;20077;-63
2021/06/02 12:41:01;;;;;;;7.82;3.05;;;;;;;;;;5181096;27;20182;-67
2021/06/02 12:43:46;;;;;;;6.00;3.58;;;;;;;;;;5180828;27;20586;-65
2021/06/02 12:46:14;;;;;;;4.68;2.80;;;;;;;;;;5163448;27;20487;-67
2021/06/02 12:48:40;;;;;;;8.00;3.37;;;;;;;;;;5180627;27;20097;-66
2021/06/02 12:51:11;;;;;;;12.68;4.35;;;;;;;;;;5180998;27;20105;-63
2021/06/02 12:53:46;;;;;;;5.28;2.35;;;;;;;;;;5162577;27;20066;-66
2021/06/02 12:56:13;;;;;;;8.43;3.15;;;;;;;;;;5181163;27;20168;-62
2021/06/02 12:58:39;;;;;;;9.98;3.45;;;;;;;;;;5178312;27;20073;-65
2021/06/02 13:01:15;;;;;;;4.75;3.30;;;;;;;;;;5179097;27;20503;-64
2021/06/02 13:03:50;;;;;;;10.15;3.28;;;;;;;;;;5178070;27;20069;-64
2021/06/02 13:06:17;;;;;;;21.52;4.53;;;;;;;;;;5179226;27;20159;-64
2021/06/02 13:08:43;;;;;;;11.85;3.53;;;;;;;;;;5161378;27;20185;-64
2021/06/02 13:11:09;;;;;;;13.48;4.47;;;;;;;;;;5197273;27;20097;-64
2021/06/02 13:13:35;;;;;;;13.85;3.53;;;;;;;;;;5178930;27;20078;-64
2021/06/02 13:16:01;;;;;;;8.55;3.22;;;;;;;;;;5180676;27;20109;-64
2021/06/02 13:18:28;;;;;;;10.27;3.10;;;;;;;;;;5178746;27;20097;-64
2021/06/02 13:21:08;;;;;;;9.55;3.65;;;;;;;;;;5180598;27;20161;-64
2021/06/02 13:23:34;;;;;;;7.20;3.10;;;;;;;;;;5179428;27;20615;-64
2021/06/02 13:26:02;;;;;;;6.45;2.67;;;;;;;;;;5179147;27;20117;-64
2021/06/02 13:28:28;;;;;;;8.55;3.20;;;;;;;;;;5179782;27;20070;-64
2021/06/02 13:30:59;;;;;;;9.45;3.15;;;;;;;;;;5180672;27;20085;-63
2021/06/02 13:33:25;;;;;;;11.25;3.15;;;;;;;;;;5178804;27;20183;-65
2021/06/02 13:36:05;;;;;;;7.40;2.97;;;;;;;;;;5180851;27;20184;-63
2021/06/02 13:38:31;;;;;;;8.75;3.33;;;;;;;;;;5180912;27;20102;-63
2021/06/02 13:40:57;;;;;;;8.70;3.30;;;;;;;;;;5181183;27;20096;-65
2021/06/02 13:43:23;;;;;;;11.95;3.00;;;;;;;;;;5179111;27;20279;-64
2021/06/02 13:45:59;;;;;;;12.48;2.97;;;;;;;;;;5180620;27;20428;-67
2021/06/02 13:48:28;;;;;;;;;;;;;;;;;;5182224;27;20180;-64
2021/06/02 13:51:07;;;;;;;7.85;3.03;;;;;;;;;;5180043;27;19989;-64
2021/06/02 13:53:34;;;;;;;6.12;3.33;;;;;;;;;;5179119;27;20094;-64
2021/06/02 13:56:00;;;;;;;13.13;3.17;;;;;;;;;;5179439;27;20113;-64
2021/06/02 13:58:25;;;;;;;4.68;2.50;;;;;;;;;;5180443;27;20090;-65
2021/06/02 14:00:51;;;;;;;7.37;2.60;;;;;;;;;;5180650;27;20461;-65
2021/06/02 14:03:17;;;;;;;5.30;2.50;;;;;;;;;;5178685;27;20446;-65
2021/06/02 14:05:43;;;;;;;10.05;2.67;;;;;;;;;;5180644;27;20082;-63
2021/06/02 14:08:09;;;;;;;12.40;3.17;;;;;;;;;;5180935;27;20078;-64
2021/06/02 14:10:35;;;;;;;4.72;2.33;;;;;;;;;;5180927;27;20089;-64
2021/06/02 14:13:01;;;;;;;6.55;2.30;;;;;;;;;;5180018;27;20100;-64
2021/06/02 14:15:27;;;;;;;7.43;2.20;;;;;;;;;;5180368;27;20531;-64
2021/06/02 14:17:53;;;;;;;8.52;2.33;;;;;;;;;;5180681;27;20081;-67
2021/06/02 14:20:19;;;;;;;3.78;2.00;;;;;;;;;;5180466;27;20492;-65
2021/06/02 14:22:45;;;;;;;10.30;2.50;;;;;;;;;;5180602;27;20244;-64
2021/06/02 14:25:16;;;;;;;13.55;2.80;;;;;;;;;;5161819;27;20113;-67
2021/06/02 14:27:42;;;;;;;8.60;2.35;;;;;;;;;;5196071;27;20544;-66
2021/06/02 14:30:09;;;;;;;10.85;2.70;;;;;;;;;;5180542;27;20507;-63
2021/06/02 14:32:34;;;;;;;5.70;2.20;;;;;;;;;;5180663;27;20504;-66
2021/06/02 14:35:00;;;;;;;7.87;2.62;;;;;;;;;;5178982;27;20183;-66
2021/06/02 14:37:27;;;;;;;4.10;2.05;;;;;;;;;;5180171;27;20183;-64
2021/06/02 14:39:56;;;;;;;6.35;2.67;;;;;;;;;;5180580;27;20453;-66
2021/06/02 14:42:22;;;;;;;6.65;2.30;;;;;;;;;;5180043;27;20069;-65
2021/06/02 14:44:48;;;;;;;4.57;2.22;;;;;;;;;;5196125;27;20495;-65
2021/06/02 14:47:14;;;;;;;6.85;2.20;;;;;;;;;;5180037;27;20078;-65
2021/06/02 14:49:40;;;;;;;9.07;2.50;;;;;;;;;;5180443;27;20183;-65
2021/06/02 14:52:06;;;;;;;4.50;2.10;;;;;;;;;;5178600;27;20058;-69
2021/06/02 14:54:32;;;;;;;10.55;2.47;;;;;;;;;;5180539;27;20157;-66
2021/06/02 14:56:58;;;;;;;5.25;2.05;;;;;;;;;;5180133;27;20508;-65
2021/06/02 14:59:24;;;;;;;5.78;2.03;;;;;;;;;;5178531;27;20097;-68
2021/06/02 15:01:50;;;;;;;5.47;2.33;;;;;;;;;;5179996;27;20088;-66
2021/06/02 15:04:16;;;;;;;5.32;1.92;;;;;;;;;;5180183;27;20515;-65
2021/06/02 15:06:42;;;;;;;5.82;1.90;;;;;;;;;;5180236;27;20110;-70
2021/06/02 15:09:08;;;;;;;4.75;2.40;;;;;;;;;;5180218;27;20086;-65
2021/06/02 15:11:34;;;;;;;5.22;2.50;;;;;;;;;;5180039;27;20100;-65
2021/06/02 15:14:01;;;;;;;7.95;2.53;;;;;;;;;;5180210;27;20113;-69
2021/06/02 15:16:27;;;;;;;12.37;2.53;;;;;;;;;;5180542;27;20491;-67
2021/06/02 15:18:53;;;;;;;7.18;2.45;;;;;;;;;;5180011;27;20086;-66
2021/06/02 15:21:21;;;;;;;3.55;2.30;;;;;;;;;;5178592;27;20100;-67
2021/06/02 15:23:48;;;;;;;4.00;1.85;;;;;;;;;;5161002;27;20195;-69
2021/06/02 15:26:14;;;;;;;7.62;2.12;;;;;;;;;;5172631;27;20059;-66
2021/06/02 15:28:42;;;;;;;5.45;2.35;;;;;;;;;;5176936;27;20082;-66
2021/06/02 15:31:10;;;;;;;6.57;2.37;;;;;;;;;;5178970;27;20076;-63
2021/06/02 15:33:38;;;;;;;5.78;1.70;;;;;;;;;;5160660;27;20078;-64
2021/06/02 15:36:06;;;;;;;3.72;2.05;;;;;;;;;;5174678;27;20175;-69
2021/06/02 15:38:34;;;;;;;4.30;1.92;;;;;;;;;;5178174;27;20075;-67
2021/06/02 15:41:01;;;;;;;2.00;1.75;;;;;;;;;;5178826;27;20080;-69
2021/06/02 15:43:28;;;;;;;9.85;1.95;;;;;;;;;;5179830;27;20073;-68
2021/06/02 15:45:56;;;;;;;2.58;1.80;;;;;;;;;;5178784;27;20093;-65
2021/06/02 15:48:23;;;;;;;8.85;2.10;;;;;;;;;;5180237;27;20130;-63
2021/06/02 15:50:49;;;;;;;4.35;1.87;;;;;;;;;;5178051;27;20093;-63